Terminal Aerodrome Forecast
Issued by NWS Salt Lake City, UT

Home | Current Version | Previous Version | Text Only | Print | Product List | Glossary On
Versions: 1 2 3 4 5 6 7 8 9 10 11 12 13 14 15
000
FTUS45 KSLC 202137 AAA
TAFCDC
TAF AMD
KCDC 202137Z 2022/2118 23015G25KT P6SM SCT070 BKN090
     FM210000 29017G26KT P6SM SCT040 BKN070
     FM210300 01008KT P6SM BKN120=

USA.gov is the U.S. government's official web portal to all federal, state and local government web resources and services.